createdAt,value
2019-01-16T00:00:07.947Z,90.50
2019-01-16T00:02:54.591Z,90.20
2019-01-16T00:05:25.719Z,90.30
2019-01-16T00:11:28.185Z,90.90
2019-01-16T00:14:08.376Z,90.60
2019-01-16T00:16:39.615Z,90.40
2019-01-16T00:19:13.622Z,90.90
2019-01-16T00:21:47.628Z,90.90
2019-01-16T00:24:21.296Z,90.90
2019-01-16T00:26:55.519Z,91.10
2019-01-16T00:29:35.427Z,91.20
2019-01-16T00:32:22.755Z,91.30
2019-01-16T00:34:59.708Z,91.50
2019-01-16T00:37:33.399Z,91.30
2019-01-16T00:40:11.211Z,91.80
2019-01-16T00:42:45.452Z,91.20
2019-01-16T00:45:18.985Z,92.20
2019-01-16T00:47:52.747Z,92.10
2019-01-16T00:50:32.434Z,91.90
2019-01-16T00:53:06.726Z,92.00
2019-01-16T00:55:54.396Z,91.90
2019-01-16T00:58:28.364Z,92.00
2019-01-16T01:00:59.428Z,92.10
2019-01-16T01:03:33.356Z,92.00
2019-01-16T01:06:10.467Z,91.70
2019-01-16T01:08:41.635Z,92.30
2019-01-16T01:11:12.769Z,92.00
2019-01-16T01:13:59.887Z,91.70
2019-01-16T01:16:42.615Z,91.90
2019-01-16T01:19:30.665Z,91.80
2019-01-16T01:22:04.496Z,91.70
2019-01-16T01:24:38.651Z,91.90
2019-01-16T01:27:26.088Z,91.90
2019-01-16T01:30:06.430Z,92.00
2019-01-16T01:32:37.555Z,91.90
2019-01-16T01:35:08.760Z,91.80
2019-01-16T01:37:55.812Z,92.00
2019-01-16T01:40:30.228Z,92.00
2019-01-16T01:43:10.456Z,92.10
2019-01-16T01:45:50.644Z,91.80
2019-01-16T01:48:40.366Z,91.80
2019-01-16T01:51:27.960Z,91.40
2019-01-16T01:54:05.074Z,91.10
2019-01-16T01:56:41.908Z,91.00
2019-01-16T01:59:13.157Z,91.40
2019-01-16T02:01:49.950Z,91.40
2019-01-16T02:04:29.917Z,91.50
2019-01-16T02:07:03.987Z,91.80
2019-01-16T02:09:38.063Z,91.70
2019-01-16T02:12:20.848Z,91.70
2019-01-16T02:15:00.596Z,91.50
2019-01-16T02:17:37.399Z,91.90
2019-01-16T02:20:12.411Z,92.90
2019-01-16T02:22:52.383Z,92.50
2019-01-16T02:25:38.607Z,92.00
2019-01-16T02:28:15.899Z,92.00
2019-01-16T02:30:55.940Z,93.00
2019-01-16T02:33:30.141Z,92.30
2019-01-16T02:36:04.748Z,92.50
2019-01-16T02:38:35.947Z,92.10
2019-01-16T02:41:16.239Z,92.50
2019-01-16T02:43:50.341Z,92.40
2019-01-16T02:46:33.836Z,92.30
2019-01-16T02:49:07.972Z,91.90
2019-01-16T02:51:39.305Z,91.90
2019-01-16T02:54:27.323Z,92.10
2019-01-16T02:57:04.440Z,92.00
2019-01-16T02:59:35.571Z,92.00
2019-01-16T03:02:19.325Z,91.90
2019-01-16T03:05:05.955Z,91.80
2019-01-16T03:07:37.020Z,92.40
2019-01-16T03:10:09.945Z,92.00
2019-01-16T03:12:50.419Z,91.30
2019-01-16T03:15:27.427Z,91.80
2019-01-16T03:17:58.808Z,92.00
2019-01-16T03:20:44.791Z,91.40
2019-01-16T03:23:18.465Z,92.20
2019-01-16T03:25:49.987Z,91.70
2019-01-16T03:28:24.372Z,92.20
2019-01-16T03:30:55.502Z,91.30
2019-01-16T03:33:43.087Z,91.00
2019-01-16T03:36:16.788Z,91.40
2019-01-16T03:38:51.085Z,90.70
2019-01-16T03:41:25.061Z,92.30
2019-01-16T03:44:03.224Z,92.50
2019-01-16T03:46:34.280Z,92.30
2019-01-16T03:49:21.488Z,92.10
2019-01-16T03:52:08.896Z,91.90
2019-01-16T03:54:52.019Z,91.70
2019-01-16T03:57:25.855Z,91.20
2019-01-16T04:00:09.061Z,92.20
2019-01-16T04:02:46.372Z,91.90
2019-01-16T04:05:21.048Z,91.70
2019-01-16T04:08:04.666Z,91.60
2019-01-16T04:10:41.348Z,92.00
2019-01-16T04:13:12.408Z,91.00
2019-01-16T04:16:01.947Z,91.80
2019-01-16T04:18:51.183Z,91.40
2019-01-16T04:21:27.937Z,92.30
2019-01-16T04:24:05.378Z,92.20
2019-01-16T04:26:36.680Z,92.20
2019-01-16T04:29:07.956Z,92.60
2019-01-16T04:31:39.124Z,92.20
2019-01-16T04:34:10.465Z,91.70
2019-01-16T04:36:41.519Z,92.10
2019-01-16T04:39:18.877Z,92.00
2019-01-16T04:41:50.153Z,91.90
2019-01-16T04:44:30.689Z,91.80
2019-01-16T04:47:05.014Z,91.40
2019-01-16T04:49:52.583Z,92.30
2019-01-16T04:52:26.071Z,92.00
2019-01-16T04:54:57.137Z,91.40
2019-01-16T04:57:28.448Z,91.80
2019-01-16T05:00:05.343Z,91.50
2019-01-16T05:02:51.720Z,91.30
2019-01-16T05:05:34.753Z,91.10
2019-01-16T05:08:09.039Z,91.00
2019-01-16T05:10:42.891Z,90.90
2019-01-16T05:13:19.588Z,90.40
2019-01-16T05:15:56.697Z,90.50
2019-01-16T05:18:30.643Z,90.20
2019-01-16T05:21:14.060Z,90.00
2019-01-16T05:23:51.692Z,89.40
2019-01-16T05:26:37.704Z,90.00
2019-01-16T05:29:25.480Z,90.50
2019-01-16T05:32:25.031Z,90.50
2019-01-16T05:34:56.128Z,89.20
2019-01-16T05:37:33.322Z,89.40
2019-01-16T05:40:07.252Z,90.00
2019-01-16T05:42:38.375Z,89.20
2019-01-16T05:45:26.311Z,89.90
2019-01-16T05:47:57.364Z,89.50
2019-01-16T05:50:46.708Z,88.70
2019-01-16T05:53:29.493Z,87.80
2019-01-16T05:56:03.583Z,89.20
2019-01-16T05:58:34.712Z,88.90
2019-01-16T06:01:12.014Z,90.10
2019-01-16T06:03:49.036Z,90.10
2019-01-16T06:06:32.708Z,90.10
2019-01-16T06:09:06.581Z,88.60
2019-01-16T06:11:54.604Z,88.60
2019-01-16T06:14:42.107Z,86.10
2019-01-16T06:17:18.054Z,87.20
2019-01-16T06:20:00.852Z,86.60
2019-01-16T06:22:48.605Z,86.00
2019-01-16T06:25:25.228Z,85.70
2019-01-16T06:27:57.019Z,85.40
2019-01-16T06:30:39.591Z,85.40
2019-01-16T06:33:13.541Z,84.60
2019-01-16T06:36:00.936Z,84.70
2019-01-16T06:38:32.271Z,84.80
2019-01-16T06:41:15.579Z,83.90
2019-01-16T06:43:55.345Z,84.10
2019-01-16T06:46:27.024Z,83.30
2019-01-16T06:49:09.963Z,82.30
2019-01-16T06:51:41.412Z,81.90
2019-01-16T06:54:15.410Z,81.50
2019-01-16T06:56:46.500Z,80.40
2019-01-16T06:59:30.370Z,82.30
2019-01-16T07:02:01.428Z,81.40
2019-01-16T07:04:38.187Z,80.80
2019-01-16T07:07:24.331Z,80.70
2019-01-16T07:09:55.492Z,80.00
2019-01-16T07:12:26.671Z,81.40
2019-01-16T07:15:16.034Z,82.00
2019-01-16T07:17:52.971Z,80.80
2019-01-16T07:20:24.067Z,79.40
2019-01-16T07:23:00.811Z,80.30
2019-01-16T07:25:47.044Z,81.10
2019-01-16T07:28:20.993Z,80.10
2019-01-16T07:30:52.196Z,79.50
2019-01-16T07:33:23.663Z,78.70
2019-01-16T07:35:54.832Z,77.80
2019-01-16T07:38:25.963Z,78.70
2019-01-16T07:40:57.078Z,77.80
2019-01-16T07:43:28.255Z,78.20
2019-01-16T07:46:08.221Z,77.30
2019-01-16T07:48:51.548Z,77.30
2019-01-16T07:51:35.249Z,78.20
2019-01-16T07:54:15.657Z,77.90
2019-01-16T07:56:46.819Z,78.20
2019-01-16T07:59:34.356Z,78.10
2019-01-16T08:02:22.630Z,77.00
2019-01-16T08:04:56.757Z,77.70
2019-01-16T08:07:28.487Z,77.30
2019-01-16T08:10:05.478Z,77.50
2019-01-16T08:12:39.345Z,77.30
2019-01-16T08:15:14.848Z,78.20
2019-01-16T08:17:48.823Z,78.20
2019-01-16T08:20:31.772Z,77.40
2019-01-16T08:23:13.447Z,75.90
2019-01-16T08:25:44.571Z,77.10
2019-01-16T08:28:18.444Z,76.90
2019-01-16T08:30:55.283Z,77.20
2019-01-16T08:33:29.505Z,76.50
2019-01-16T08:36:16.983Z,76.90
2019-01-16T08:38:51.651Z,76.10
2019-01-16T08:41:39.603Z,75.70
2019-01-16T08:44:25.707Z,76.00
2019-01-16T08:46:59.435Z,75.00
2019-01-16T08:49:30.651Z,73.90
2019-01-16T08:52:10.363Z,75.30
2019-01-16T08:54:41.483Z,72.90
2019-01-16T08:57:16.656Z,71.60
2019-01-16T09:00:04.035Z,72.80
2019-01-16T09:02:41.456Z,73.70
2019-01-16T09:05:13.354Z,73.00
2019-01-16T09:08:00.688Z,72.80
2019-01-16T09:10:43.941Z,73.60
2019-01-16T09:13:31.883Z,73.70
2019-01-16T09:16:19.427Z,74.10
2019-01-16T09:18:59.238Z,72.90
2019-01-16T09:21:32.571Z,72.60
2019-01-16T09:24:03.996Z,73.90
2019-01-16T09:26:40.322Z,74.00
2019-01-16T09:29:11.231Z,73.80
2019-01-16T09:31:42.323Z,73.50
2019-01-16T09:34:19.082Z,74.10
2019-01-16T09:36:53.315Z,73.30
2019-01-16T09:39:39.714Z,73.30
2019-01-16T09:42:19.480Z,73.60
2019-01-16T09:44:58.267Z,73.10
2019-01-16T09:47:44.179Z,72.50
2019-01-16T09:50:25.787Z,72.50
2019-01-16T09:53:03.058Z,72.30
2019-01-16T09:55:35.042Z,72.30
2019-01-16T09:58:06.514Z,72.60
2019-01-16T10:00:38.249Z,72.20
2019-01-16T10:03:26.399Z,71.50
2019-01-16T10:05:57.597Z,71.80
2019-01-16T10:08:34.683Z,72.00
2019-01-16T10:11:05.833Z,72.70
2019-01-16T10:13:53.111Z,73.20
2019-01-16T10:16:27.387Z,72.70
2019-01-16T10:18:59.942Z,71.20
2019-01-16T10:21:31.209Z,70.60
2019-01-16T10:24:02.343Z,70.50
2019-01-16T10:26:39.695Z,71.00
2019-01-16T10:29:29.033Z,72.50
2019-01-16T10:32:12.384Z,70.80
2019-01-16T10:34:49.911Z,71.20
2019-01-16T10:37:26.989Z,70.70
2019-01-16T10:39:58.313Z,70.60
2019-01-16T10:42:48.277Z,70.80
2019-01-16T10:45:22.332Z,70.90
2019-01-16T10:48:10.703Z,69.90
2019-01-16T10:50:48.104Z,70.60
2019-01-16T10:53:23.351Z,70.30
2019-01-16T10:56:11.295Z,70.10
2019-01-16T10:58:45.184Z,70.50
2019-01-16T11:01:25.396Z,70.20
2019-01-16T11:03:59.763Z,71.70
2019-01-16T11:06:43.011Z,70.00
2019-01-16T11:09:21.162Z,71.20
2019-01-16T11:12:04.964Z,70.10
2019-01-16T11:14:52.419Z,70.60
2019-01-16T11:17:29.681Z,70.50
2019-01-16T11:20:15.809Z,69.00
2019-01-16T11:23:04.207Z,71.50
2019-01-16T11:25:57.144Z,69.40
2019-01-16T11:28:32.406Z,68.90
2019-01-16T11:31:05.319Z,68.40
2019-01-16T11:33:39.199Z,69.30
2019-01-16T11:36:19.250Z,69.00
2019-01-16T11:38:56.251Z,68.30
2019-01-16T11:41:42.384Z,67.10
2019-01-16T11:44:13.511Z,67.70
2019-01-16T11:46:44.575Z,67.80
2019-01-16T11:49:25.031Z,68.30
2019-01-16T11:51:59.332Z,67.20
2019-01-16T11:54:36.066Z,67.30
2019-01-16T11:57:19.989Z,69.60
2019-01-16T11:59:54.955Z,68.20
2019-01-16T12:02:42.578Z,67.90
2019-01-16T12:05:23.056Z,67.40
2019-01-16T12:08:05.709Z,67.20
2019-01-16T12:10:46.315Z,68.20
2019-01-16T12:13:33.623Z,69.00
2019-01-16T12:16:16.864Z,69.10
2019-01-16T12:19:06.038Z,68.90
2019-01-16T12:21:49.175Z,68.10
2019-01-16T12:24:39.581Z,68.80
2019-01-16T12:27:16.507Z,67.80
2019-01-16T12:29:56.456Z,67.50
2019-01-16T12:32:31.178Z,67.30
2019-01-16T12:35:02.308Z,68.30
2019-01-16T12:37:36.388Z,67.90
2019-01-16T12:40:22.177Z,68.20
2019-01-16T12:43:09.388Z,68.90
2019-01-16T12:45:40.519Z,67.70
2019-01-16T12:48:11.821Z,67.70
2019-01-16T12:50:59.991Z,66.80
2019-01-16T12:53:38.492Z,67.70
2019-01-16T12:56:25.208Z,67.40
2019-01-16T12:58:59.275Z,67.60
2019-01-16T13:01:30.388Z,68.70
2019-01-16T13:04:20.953Z,69.00
2019-01-16T13:06:52.453Z,69.20
2019-01-16T13:09:23.595Z,69.40
2019-01-16T13:12:10.428Z,68.30
2019-01-16T13:14:47.595Z,68.90
2019-01-16T13:17:34.931Z,69.00
2019-01-16T13:20:09.531Z,67.90
2019-01-16T13:22:57.195Z,65.70
2019-01-16T13:25:30.867Z,65.10
2019-01-16T13:28:10.952Z,66.80
2019-01-16T13:30:58.770Z,67.80
2019-01-16T13:33:42.516Z,67.80
2019-01-16T13:36:16.475Z,68.70
2019-01-16T13:38:51.249Z,66.50
2019-01-16T13:41:24.094Z,66.70
2019-01-16T13:43:58.119Z,66.80
2019-01-16T13:46:29.677Z,69.60
2019-01-16T13:49:10.752Z,68.90
2019-01-16T13:51:59.050Z,69.60
2019-01-16T13:54:34.451Z,66.00
2019-01-16T13:57:26.108Z,65.20
2019-01-16T14:00:14.893Z,65.60
2019-01-16T14:02:53.196Z,63.70
2019-01-16T14:05:28.434Z,66.00
2019-01-16T14:08:02.463Z,64.60
2019-01-16T14:10:36.595Z,65.00
2019-01-16T14:13:24.145Z,65.00
2019-01-16T14:15:55.297Z,65.70
2019-01-16T14:18:29.331Z,64.30
2019-01-16T14:21:16.864Z,66.30
2019-01-16T14:23:47.927Z,66.10
2019-01-16T14:26:19.148Z,65.20
2019-01-16T14:28:53.659Z,65.00
2019-01-16T14:31:36.515Z,63.90
2019-01-16T14:34:07.771Z,65.30
2019-01-16T14:36:48.236Z,65.80
2019-01-16T14:39:25.094Z,65.70
2019-01-16T14:41:57.834Z,64.00
2019-01-16T14:44:41.635Z,66.60
2019-01-16T14:47:21.603Z,66.50
2019-01-16T14:49:58.503Z,66.20
2019-01-16T14:52:47.867Z,66.20
2019-01-16T14:55:37.965Z,65.30
2019-01-16T14:58:12.501Z,65.50
2019-01-16T15:01:00.187Z,64.80
2019-01-16T15:03:47.968Z,65.00
2019-01-16T15:06:37.560Z,65.40
2019-01-16T15:09:23.845Z,64.60
2019-01-16T15:11:54.929Z,64.80
2019-01-16T15:14:41.320Z,64.80
2019-01-16T15:17:18.214Z,64.70
2019-01-16T15:19:54.924Z,65.90
2019-01-16T15:22:26.063Z,65.90
2019-01-16T15:25:03.155Z,66.00
2019-01-16T15:27:40.564Z,65.10
2019-01-16T15:30:21.290Z,65.50
2019-01-16T15:32:58.583Z,65.90
2019-01-16T15:35:35.851Z,66.40
2019-01-16T15:38:16.539Z,65.00
2019-01-16T15:40:50.956Z,64.90
2019-01-16T15:43:28.392Z,65.00
2019-01-16T15:46:15.816Z,66.30
2019-01-16T15:49:03.504Z,66.20
2019-01-16T15:51:40.343Z,65.90
2019-01-16T15:54:11.800Z,66.00
2019-01-16T15:56:46.003Z,66.00
2019-01-16T15:59:26.330Z,66.20
2019-01-16T16:01:57.764Z,66.40
2019-01-16T16:04:47.535Z,66.80
2019-01-16T16:07:24.695Z,66.40
2019-01-16T16:10:04.680Z,66.70
2019-01-16T16:12:51.963Z,67.00
2019-01-16T16:15:36.331Z,68.40
2019-01-16T16:18:23.743Z,68.30
2019-01-16T16:20:54.991Z,68.60
2019-01-16T16:23:42.595Z,68.10
2019-01-16T16:26:13.688Z,67.30
2019-01-16T16:28:44.916Z,67.30
2019-01-16T16:31:24.800Z,68.30
2019-01-16T16:34:01.928Z,68.30
2019-01-16T16:36:33.398Z,68.40
2019-01-16T16:39:20.603Z,68.20
2019-01-16T16:41:51.779Z,69.40
2019-01-16T16:44:22.985Z,68.60
2019-01-16T16:46:54.279Z,70.10
2019-01-16T16:49:43.398Z,69.50
2019-01-16T16:52:14.571Z,69.20
2019-01-16T16:54:48.921Z,69.10
2019-01-16T17:00:05.776Z,69.30
2019-01-16T17:02:45.983Z,69.40
2019-01-16T17:05:20.198Z,69.10
2019-01-16T17:07:51.366Z,69.40
2019-01-16T17:10:25.151Z,69.50
2019-01-16T17:12:59.512Z,69.90
2019-01-16T17:15:33.146Z,69.30
2019-01-16T17:18:16.175Z,69.40
2019-01-16T17:21:03.455Z,69.00
2019-01-16T17:23:43.563Z,69.20
2019-01-16T17:26:32.515Z,69.70
2019-01-16T17:29:12.884Z,69.50
2019-01-16T17:31:53.127Z,69.60
2019-01-16T17:34:33.103Z,70.00
2019-01-16T17:37:10.268Z,70.40
2019-01-16T17:39:50.468Z,70.30
2019-01-16T17:42:36.240Z,69.50
2019-01-16T17:45:26.043Z,69.90
2019-01-16T17:48:00.027Z,69.70
2019-01-16T17:50:31.146Z,69.80
2019-01-16T17:53:08.025Z,69.70
2019-01-16T17:55:55.450Z,69.60
2019-01-16T17:58:29.283Z,70.00
2019-01-16T18:01:00.747Z,69.80
2019-01-16T18:03:34.673Z,69.60
2019-01-16T18:06:22.274Z,70.60
2019-01-16T18:08:58.349Z,70.60
2019-01-16T18:11:44.876Z,71.00
2019-01-16T18:14:34.175Z,70.70
2019-01-16T18:17:08.187Z,70.40
2019-01-16T18:19:39.320Z,70.00
2019-01-16T18:22:27.918Z,70.10
2019-01-16T18:25:05.131Z,70.80
2019-01-16T18:27:38.237Z,70.90
2019-01-16T18:30:21.587Z,70.40
2019-01-16T18:32:53.403Z,71.80
2019-01-16T18:35:30.322Z,70.80
2019-01-16T18:38:01.778Z,71.30
2019-01-16T18:40:39.162Z,71.00
2019-01-16T18:43:19.310Z,70.80
2019-01-16T18:45:59.439Z,71.00
2019-01-16T18:48:33.139Z,71.50
2019-01-16T18:51:21.019Z,70.90
2019-01-16T18:54:10.120Z,71.60
2019-01-16T18:56:47.263Z,71.30
2019-01-16T18:59:33.695Z,71.70
2019-01-16T19:02:04.748Z,71.40
2019-01-16T19:04:39.051Z,71.40
2019-01-16T19:07:22.280Z,71.60
2019-01-16T19:09:59.400Z,72.60
2019-01-16T19:12:33.451Z,72.30
2019-01-16T19:15:22.371Z,72.00
2019-01-16T19:17:53.491Z,71.80
2019-01-16T19:20:31.012Z,71.80
2019-01-16T19:23:07.867Z,71.80
2019-01-16T19:25:39.163Z,72.00
2019-01-16T19:28:10.486Z,72.00
2019-01-16T19:31:00.543Z,72.10
2019-01-16T19:33:34.238Z,71.80
2019-01-16T19:36:06.135Z,71.80
2019-01-16T19:38:43.270Z,71.80
2019-01-16T19:41:32.591Z,72.70
2019-01-16T19:44:19.597Z,72.70
2019-01-16T19:46:53.799Z,73.40
2019-01-16T19:49:27.564Z,74.00
2019-01-16T19:52:01.837Z,74.70
2019-01-16T19:54:36.016Z,74.80
2019-01-16T19:57:09.783Z,74.50
2019-01-16T19:59:53.078Z,74.80
2019-01-16T20:02:40.688Z,74.20
2019-01-16T20:05:11.905Z,73.20
2019-01-16T20:07:45.883Z,73.90
2019-01-16T20:10:29.071Z,72.90
2019-01-16T20:13:02.703Z,73.20
2019-01-16T20:15:48.734Z,74.30
2019-01-16T20:18:25.624Z,73.10
2019-01-16T20:21:05.404Z,73.40
2019-01-16T20:23:51.427Z,73.50
2019-01-16T20:26:28.356Z,73.40
2019-01-16T20:29:15.999Z,74.10
2019-01-16T20:31:50.420Z,72.90
2019-01-16T20:34:27.888Z,73.70
2019-01-16T20:36:59.019Z,73.40
2019-01-16T20:39:30.355Z,73.20
2019-01-16T20:42:04.420Z,73.40
2019-01-16T20:44:52.012Z,73.10
2019-01-16T20:47:25.883Z,73.90
2019-01-16T20:50:02.989Z,74.10
2019-01-16T20:52:52.419Z,73.90
2019-01-16T20:55:23.810Z,73.50
2019-01-16T20:58:11.601Z,74.00
2019-01-16T21:00:59.714Z,73.90
2019-01-16T21:03:37.083Z,73.70
2019-01-16T21:06:24.744Z,75.10
2019-01-16T21:08:59.052Z,74.40
2019-01-16T21:11:46.663Z,75.00
2019-01-16T21:14:36.344Z,75.90
2019-01-16T21:17:09.967Z,76.90
2019-01-16T21:19:59.651Z,77.40
2019-01-16T21:22:42.482Z,75.60
2019-01-16T21:25:22.723Z,75.50
2019-01-16T21:27:56.792Z,75.40
2019-01-16T21:30:28.186Z,75.30
2019-01-16T21:33:15.873Z,74.80
2019-01-16T21:36:03.339Z,76.40
2019-01-16T21:38:34.487Z,76.30
2019-01-16T21:41:14.551Z,77.30
2019-01-16T21:44:01.988Z,76.10
2019-01-16T21:46:33.359Z,76.70
2019-01-16T21:49:10.181Z,76.10
2019-01-16T21:51:53.312Z,76.90
2019-01-16T21:54:24.665Z,76.10
2019-01-16T21:57:07.647Z,77.80
2019-01-16T21:59:47.948Z,76.40
2019-01-16T22:02:19.551Z,76.30
2019-01-16T22:04:57.962Z,76.80
2019-01-16T22:07:31.619Z,77.40
2019-01-16T22:10:08.255Z,76.60
2019-01-16T22:12:39.663Z,76.80
2019-01-16T22:15:28.907Z,76.70
2019-01-16T22:18:09.427Z,76.50
2019-01-16T22:20:52.827Z,76.40
2019-01-16T22:23:41.639Z,76.60
2019-01-16T22:26:21.923Z,76.80
2019-01-16T22:28:53.634Z,76.50
2019-01-16T22:31:36.958Z,76.10
2019-01-16T22:34:14.667Z,76.20
2019-01-16T22:36:48.597Z,76.30
2019-01-16T22:39:35.943Z,76.10
2019-01-16T22:42:22.912Z,75.70
2019-01-16T22:45:08.984Z,75.90
2019-01-16T22:47:40.031Z,75.90
2019-01-16T22:50:17.170Z,75.70
2019-01-16T22:52:57.410Z,76.20
2019-01-16T22:55:28.587Z,76.30
2019-01-16T22:58:11.641Z,76.30
2019-01-16T23:00:54.926Z,77.10
2019-01-16T23:03:42.743Z,76.10
2019-01-16T23:06:32.271Z,76.20
2019-01-16T23:09:19.615Z,75.90
2019-01-16T23:12:02.547Z,76.60
2019-01-16T23:14:33.679Z,76.00
2019-01-16T23:17:17.063Z,76.00
2019-01-16T23:19:48.227Z,75.50
2019-01-16T23:22:19.275Z,75.80
2019-01-16T23:24:53.975Z,76.10
2019-01-16T23:27:37.243Z,76.80
2019-01-16T23:30:22.588Z,76.90
2019-01-16T23:32:59.366Z,77.00
2019-01-16T23:35:36.194Z,77.60
2019-01-16T23:38:19.259Z,77.10
2019-01-16T23:40:59.363Z,77.30
2019-01-16T23:43:30.763Z,77.50
2019-01-16T23:46:07.651Z,77.10
2019-01-16T23:48:41.771Z,77.10
2019-01-16T23:51:12.923Z,77.20
2019-01-16T23:53:56.295Z,77.50
2019-01-16T23:56:31.655Z,77.60
2019-01-16T23:59:19.468Z,77.80
